createdAt,value
2022-08-27T00:02:23.089Z,20.90
2022-08-27T00:04:51.868Z,20.86
2022-08-27T00:07:21.808Z,20.85
2022-08-27T00:09:50.277Z,20.82
2022-08-27T00:12:18.890Z,20.78
2022-08-27T00:14:47.416Z,20.76
2022-08-27T00:17:17.933Z,20.69
2022-08-27T00:19:46.788Z,20.72
2022-08-27T00:22:15.856Z,20.74
2022-08-27T00:24:48.788Z,20.74
2022-08-27T00:27:19.561Z,20.73
2022-08-27T00:29:50.017Z,20.78
2022-08-27T00:32:19.343Z,20.78
2022-08-27T00:34:47.976Z,20.80
2022-08-27T00:37:16.630Z,20.78
2022-08-27T00:39:46.689Z,20.79
2022-08-27T00:42:15.492Z,20.69
2022-08-27T00:44:44.434Z,20.72
2022-08-27T00:47:18.333Z,20.75
2022-08-27T00:49:52.302Z,20.79
2022-08-27T00:52:27.319Z,20.75
2022-08-27T00:55:04.311Z,20.80
2022-08-27T00:57:35.150Z,20.80
2022-08-27T01:00:05.911Z,20.81
2022-08-27T01:02:35.386Z,20.81
2022-08-27T01:05:12.283Z,20.83
2022-08-27T01:07:46.955Z,20.84
2022-08-27T01:10:22.579Z,20.86
2022-08-27T01:12:54.233Z,20.87
2022-08-27T01:15:26.676Z,20.82
2022-08-27T01:17:58.465Z,20.86
2022-08-27T01:20:32.963Z,20.85
2022-08-27T01:23:16.874Z,20.87
2022-08-27T01:25:47.894Z,20.88
2022-08-27T01:28:17.167Z,20.88
2022-08-27T01:30:50.626Z,20.88
2022-08-27T01:33:24.659Z,20.84
2022-08-27T01:35:54.576Z,20.84
2022-08-27T01:38:30.699Z,20.82
2022-08-27T01:41:03.811Z,20.77
2022-08-27T01:43:33.752Z,20.77
2022-08-27T01:46:02.249Z,20.77
2022-08-27T01:48:31.359Z,20.78
2022-08-27T01:51:00.573Z,20.78
2022-08-27T01:53:29.778Z,20.79
2022-08-27T01:56:00.482Z,20.75
2022-08-27T01:58:33.667Z,20.78
2022-08-27T02:01:07.046Z,20.77
2022-08-27T02:03:36.562Z,20.77
2022-08-27T02:06:09.329Z,20.79
2022-08-27T02:08:38.985Z,20.80
2022-08-27T02:11:10.284Z,20.76
2022-08-27T02:13:40.376Z,20.68
2022-08-27T02:16:10.718Z,20.66
2022-08-27T02:18:41.724Z,20.57
2022-08-27T02:21:12.561Z,20.56
2022-08-27T02:23:42.133Z,20.57
2022-08-27T02:26:12.077Z,20.57
2022-08-27T02:28:42.154Z,20.61
2022-08-27T02:31:11.632Z,20.55
2022-08-27T02:33:40.926Z,20.57
2022-08-27T02:36:10.778Z,20.59
2022-08-27T02:38:39.430Z,20.63
2022-08-27T02:41:08.725Z,20.64
2022-08-27T02:43:39.751Z,20.66
2022-08-27T02:46:08.807Z,20.65
2022-08-27T02:48:38.438Z,20.65
2022-08-27T02:51:08.943Z,20.65
2022-08-27T02:53:39.619Z,20.62
2022-08-27T02:56:10.535Z,20.62
2022-08-27T02:58:41.420Z,20.55
2022-08-27T03:01:11.231Z,20.43
2022-08-27T03:03:43.739Z,20.41
2022-08-27T03:06:13.070Z,20.33
2022-08-27T03:08:52.978Z,20.28
2022-08-27T03:11:23.126Z,20.27
2022-08-27T03:13:53.894Z,20.28
2022-08-27T03:16:22.981Z,20.29
2022-08-27T03:18:51.507Z,20.27
2022-08-27T03:21:22.215Z,20.24
2022-08-27T03:23:51.998Z,20.18
2022-08-27T03:26:22.006Z,20.14
2022-08-27T03:28:52.107Z,20.09
2022-08-27T03:31:27.774Z,20.08
2022-08-27T03:34:02.514Z,20.06
2022-08-27T03:36:32.934Z,20.08
2022-08-27T03:39:02.043Z,20.11
2022-08-27T03:41:45.602Z,20.14
2022-08-27T03:44:22.090Z,20.12
2022-08-27T03:46:52.352Z,20.07
2022-08-27T03:49:22.602Z,20.04
2022-08-27T03:51:54.225Z,19.99
2022-08-27T03:54:23.551Z,20.00
2022-08-27T03:56:55.102Z,20.00
2022-08-27T03:59:25.023Z,20.02
2022-08-27T04:01:54.012Z,20.05
2022-08-27T04:04:23.952Z,20.01
2022-08-27T04:06:53.020Z,19.98
2022-08-27T04:09:25.381Z,19.93
2022-08-27T04:11:53.838Z,19.94
2022-08-27T04:14:26.906Z,19.98
2022-08-27T04:16:57.168Z,20.00
2022-08-27T04:19:28.486Z,20.01
2022-08-27T04:22:02.602Z,20.01
2022-08-27T04:24:34.120Z,19.95
2022-08-27T04:27:03.999Z,19.92
2022-08-27T04:29:35.138Z,19.91
2022-08-27T04:32:06.491Z,19.90
2022-08-27T04:34:36.068Z,19.87
2022-08-27T04:37:06.528Z,19.86
2022-08-27T04:39:35.316Z,19.88
2022-08-27T04:42:04.744Z,19.86
2022-08-27T04:44:35.229Z,19.86
2022-08-27T04:47:07.369Z,19.86
2022-08-27T04:49:36.997Z,19.93
2022-08-27T04:52:08.180Z,19.92
2022-08-27T04:54:37.644Z,19.94
2022-08-27T04:57:08.145Z,19.92
2022-08-27T04:59:40.808Z,19.91
2022-08-27T05:02:11.012Z,19.87
2022-08-27T05:04:42.211Z,19.86
2022-08-27T05:07:11.386Z,19.85
2022-08-27T05:09:40.433Z,19.87
2022-08-27T05:12:09.849Z,19.87
2022-08-27T05:14:39.735Z,19.84
2022-08-27T05:17:08.983Z,19.85
2022-08-27T05:19:37.541Z,19.86
2022-08-27T05:22:06.233Z,19.87
2022-08-27T05:24:34.728Z,19.92
2022-08-27T05:27:03.225Z,19.90
2022-08-27T05:29:32.372Z,19.88
2022-08-27T05:32:02.228Z,19.87
2022-08-27T05:34:31.806Z,19.81
2022-08-27T05:37:01.472Z,19.72
2022-08-27T05:39:30.661Z,19.68
2022-08-27T05:42:00.215Z,19.70
2022-08-27T05:44:45.262Z,19.68
2022-08-27T05:47:16.683Z,19.66
2022-08-27T05:49:45.563Z,19.63
2022-08-27T05:52:14.964Z,19.69
2022-08-27T05:54:43.512Z,19.72
2022-08-27T05:57:12.724Z,19.64
2022-08-27T05:59:59.159Z,19.68
2022-08-27T06:02:29.536Z,19.68
2022-08-27T06:04:58.158Z,19.64
2022-08-27T06:07:26.987Z,19.62
2022-08-27T06:09:55.521Z,19.61
2022-08-27T06:12:28.114Z,19.63
2022-08-27T06:14:58.351Z,19.67
2022-08-27T06:17:28.471Z,19.68
2022-08-27T06:19:57.972Z,19.59
2022-08-27T06:22:26.533Z,19.57
2022-08-27T06:24:55.111Z,19.56
2022-08-27T06:27:23.664Z,19.48
2022-08-27T06:29:52.184Z,19.47
2022-08-27T06:32:21.073Z,19.51
2022-08-27T06:34:50.993Z,19.54
2022-08-27T06:37:19.554Z,19.55
2022-08-27T06:39:48.036Z,19.57
2022-08-27T06:42:17.006Z,19.55
2022-08-27T06:44:45.498Z,19.48
2022-08-27T06:47:14.125Z,19.51
2022-08-27T06:49:46.538Z,19.52
2022-08-27T06:52:17.067Z,19.47
2022-08-27T06:54:46.618Z,19.48
2022-08-27T06:57:16.346Z,19.51
2022-08-27T06:59:45.288Z,19.49
2022-08-27T07:02:14.255Z,19.44
2022-08-27T07:04:42.834Z,19.43
2022-08-27T07:07:13.798Z,19.34
2022-08-27T07:09:44.465Z,19.29
2022-08-27T07:12:13.181Z,19.38
2022-08-27T07:14:43.000Z,19.44
2022-08-27T07:17:15.873Z,19.42
2022-08-27T07:19:45.721Z,19.41
2022-08-27T07:22:14.907Z,19.47
2022-08-27T07:24:45.540Z,19.45
2022-08-27T07:27:14.064Z,19.49
2022-08-27T07:29:42.682Z,19.54
2022-08-27T07:32:12.563Z,19.59
2022-08-27T07:34:41.166Z,19.64
2022-08-27T07:37:09.798Z,19.67
2022-08-27T07:39:38.329Z,19.71
2022-08-27T07:42:25.912Z,19.68
2022-08-27T07:44:54.431Z,19.65
2022-08-27T07:47:23.416Z,19.69
2022-08-27T07:49:53.300Z,19.68
2022-08-27T07:52:26.330Z,19.69
2022-08-27T07:54:55.452Z,19.68
2022-08-27T07:57:26.090Z,19.63
2022-08-27T07:59:55.751Z,19.64
2022-08-27T08:02:24.925Z,19.64
2022-08-27T08:04:53.815Z,19.63
2022-08-27T08:07:22.398Z,19.67
2022-08-27T08:09:50.993Z,19.60
2022-08-27T08:12:26.384Z,19.51
2022-08-27T08:14:58.773Z,19.55
2022-08-27T08:17:27.899Z,19.52
2022-08-27T08:20:18.490Z,19.56
2022-08-27T08:22:48.002Z,19.62
2022-08-27T08:25:18.148Z,19.66
2022-08-27T08:27:48.760Z,19.71
2022-08-27T08:30:19.622Z,19.74
2022-08-27T08:32:48.172Z,19.72
2022-08-27T08:35:17.974Z,19.72
2022-08-27T08:37:48.102Z,19.82
2022-08-27T08:40:32.954Z,19.93
2022-08-27T08:43:04.087Z,19.97
2022-08-27T08:45:38.896Z,20.03
2022-08-27T08:48:13.717Z,20.07
2022-08-27T08:50:57.490Z,20.11
2022-08-27T08:53:43.000Z,20.14
2022-08-27T08:56:19.150Z,20.17
2022-08-27T08:58:53.924Z,20.14
2022-08-27T09:01:27.558Z,20.12
2022-08-27T09:04:01.187Z,20.18
2022-08-27T09:06:42.329Z,20.19
2022-08-27T09:09:23.460Z,20.18
2022-08-27T09:12:02.833Z,20.22
2022-08-27T09:14:39.772Z,20.32
2022-08-27T09:17:11.640Z,20.39
2022-08-27T09:19:41.580Z,20.35
2022-08-27T09:22:25.035Z,20.38
2022-08-27T09:25:10.571Z,20.47
2022-08-27T09:27:44.108Z,20.50
2022-08-27T09:30:20.754Z,20.52
2022-08-27T09:32:58.831Z,20.45
2022-08-27T09:35:35.520Z,20.43
2022-08-27T09:38:05.053Z,20.43
2022-08-27T09:40:42.851Z,20.53
2022-08-27T09:43:24.477Z,20.58
2022-08-27T09:45:56.242Z,20.61
2022-08-27T09:48:31.114Z,20.65
2022-08-27T09:51:03.616Z,20.70
2022-08-27T09:53:44.133Z,20.70
2022-08-27T09:56:28.723Z,20.67
2022-08-27T09:59:06.605Z,20.65
2022-08-27T10:01:39.225Z,20.68
2022-08-27T10:04:13.842Z,20.73
2022-08-27T10:06:48.559Z,20.80
2022-08-27T10:09:26.845Z,20.82
2022-08-27T10:12:07.728Z,20.78
2022-08-27T10:14:43.861Z,20.82
2022-08-27T10:17:28.337Z,20.86
2022-08-27T10:20:12.559Z,20.89
2022-08-27T10:22:57.158Z,20.88
2022-08-27T10:25:41.303Z,20.94
2022-08-27T10:28:30.008Z,21.00
2022-08-27T10:31:21.725Z,21.00
2022-08-27T10:34:13.765Z,20.99
2022-08-27T10:37:00.529Z,21.06
2022-08-27T10:39:57.961Z,21.12
2022-08-27T10:42:35.434Z,21.18
2022-08-27T10:45:30.894Z,21.25
2022-08-27T10:48:13.039Z,21.28
2022-08-27T10:50:50.017Z,21.31
2022-08-27T10:53:31.889Z,21.36
2022-08-27T10:56:14.894Z,21.41
2022-08-27T10:59:11.003Z,21.45
2022-08-27T11:01:53.968Z,21.48
2022-08-27T11:04:29.681Z,21.50
2022-08-27T11:07:05.046Z,21.56
2022-08-27T11:09:47.143Z,21.64
2022-08-27T11:12:27.693Z,21.66
2022-08-27T11:15:01.719Z,21.70
2022-08-27T11:17:39.033Z,21.76
2022-08-27T11:20:15.331Z,21.80
2022-08-27T11:22:52.468Z,21.81
2022-08-27T11:25:44.181Z,21.83
2022-08-27T11:28:18.254Z,21.84
2022-08-27T11:31:01.017Z,21.85
2022-08-27T11:33:45.427Z,21.80
2022-08-27T11:37:04.302Z,21.80
2022-08-27T11:40:00.467Z,21.85
2022-08-27T11:42:39.595Z,21.91
2022-08-27T11:45:18.403Z,21.97
2022-08-27T11:47:55.162Z,21.98
2022-08-27T11:50:27.085Z,22.03
2022-08-27T11:53:00.835Z,22.11
2022-08-27T11:55:36.142Z,22.16
2022-08-27T11:58:11.360Z,22.18
2022-08-27T12:00:42.696Z,22.24
2022-08-27T12:03:31.637Z,22.31
2022-08-27T12:06:26.793Z,22.33
2022-08-27T12:09:08.651Z,22.41
2022-08-27T12:11:55.931Z,22.48
2022-08-27T12:14:44.789Z,22.53
2022-08-27T12:17:28.375Z,22.56
2022-08-27T12:20:21.554Z,22.63
2022-08-27T12:23:27.584Z,22.66
2022-08-27T12:26:12.829Z,22.67
2022-08-27T12:28:41.474Z,22.73
2022-08-27T12:31:12.064Z,22.78
2022-08-27T12:33:49.049Z,22.77
2022-08-27T12:36:28.150Z,22.78
2022-08-27T12:39:00.541Z,22.69
2022-08-27T12:41:44.716Z,22.72
2022-08-27T12:44:16.727Z,22.79
2022-08-27T12:46:52.919Z,22.86
2022-08-27T12:49:37.032Z,22.89
2022-08-27T12:52:39.375Z,22.97
2022-08-27T12:55:30.044Z,22.99
2022-08-27T12:58:15.621Z,22.94
2022-08-27T13:01:27.582Z,22.91
2022-08-27T13:04:01.134Z,22.94
2022-08-27T13:06:33.773Z,22.96
2022-08-27T13:09:05.984Z,22.97
2022-08-27T13:11:44.621Z,22.97
2022-08-27T13:14:20.524Z,22.98
2022-08-27T13:16:54.389Z,23.07
2022-08-27T13:19:31.322Z,23.05
2022-08-27T13:22:03.618Z,22.99
2022-08-27T13:24:35.072Z,23.06
2022-08-27T13:27:06.629Z,23.14
2022-08-27T13:29:36.313Z,23.20
2022-08-27T13:32:06.480Z,23.21
2022-08-27T13:34:41.503Z,23.26
2022-08-27T13:37:28.299Z,23.13
2022-08-27T13:39:58.690Z,23.11
2022-08-27T13:42:28.550Z,23.12
2022-08-27T13:45:05.907Z,23.15
2022-08-27T13:47:46.793Z,23.33
2022-08-27T13:50:28.235Z,23.41
2022-08-27T13:53:24.910Z,23.47
2022-08-27T13:55:56.060Z,23.60
2022-08-27T13:58:30.146Z,23.60
2022-08-27T14:01:12.112Z,23.57
2022-08-27T14:03:52.734Z,23.60
2022-08-27T14:06:35.333Z,23.58
2022-08-27T14:09:23.498Z,23.59
2022-08-27T14:12:02.521Z,23.67
2022-08-27T14:14:37.051Z,23.76
2022-08-27T14:17:20.517Z,23.81
2022-08-27T14:19:49.679Z,23.86
2022-08-27T14:22:20.731Z,23.87
2022-08-27T14:24:49.360Z,23.75
2022-08-27T14:27:20.081Z,23.83
2022-08-27T14:29:49.824Z,23.76
2022-08-27T14:32:19.498Z,23.85
2022-08-27T14:34:48.594Z,23.88
2022-08-27T14:37:18.060Z,23.95
2022-08-27T14:39:47.976Z,23.97
2022-08-27T14:42:18.290Z,24.01
2022-08-27T14:44:48.424Z,23.98
2022-08-27T14:47:18.283Z,23.92
2022-08-27T14:49:48.218Z,23.96
2022-08-27T14:52:17.720Z,24.01
2022-08-27T14:54:47.802Z,24.06
2022-08-27T14:57:16.879Z,23.94
2022-08-27T14:59:45.336Z,24.02
2022-08-27T15:02:15.478Z,24.04
2022-08-27T15:04:47.268Z,24.05
2022-08-27T15:07:19.737Z,23.97
2022-08-27T15:09:52.682Z,23.96
2022-08-27T15:12:26.490Z,23.97
2022-08-27T15:14:56.012Z,23.99
2022-08-27T15:17:35.270Z,23.99
2022-08-27T15:20:06.634Z,23.95
2022-08-27T15:22:37.135Z,23.96
2022-08-27T15:25:11.185Z,23.85
2022-08-27T15:27:40.143Z,23.68
2022-08-27T15:30:12.750Z,23.76
2022-08-27T15:32:45.448Z,23.71
2022-08-27T15:35:16.839Z,23.66
2022-08-27T15:37:46.189Z,23.60
2022-08-27T15:40:19.055Z,23.49
2022-08-27T15:42:51.619Z,23.51
2022-08-27T15:45:20.243Z,23.50
2022-08-27T15:47:52.447Z,23.42
2022-08-27T15:50:21.189Z,23.39
2022-08-27T15:52:52.696Z,23.44
2022-08-27T15:55:27.117Z,23.49
2022-08-27T15:57:56.637Z,23.32
2022-08-27T16:00:26.278Z,23.12
2022-08-27T16:02:55.652Z,23.09
2022-08-27T16:05:24.715Z,23.08
2022-08-27T16:07:53.520Z,23.03
2022-08-27T16:10:23.690Z,22.97
2022-08-27T16:12:52.228Z,22.95
2022-08-27T16:15:21.352Z,22.85
2022-08-27T16:17:56.113Z,22.84
2022-08-27T16:20:26.362Z,22.86
2022-08-27T16:22:55.594Z,22.67
2022-08-27T16:25:26.481Z,22.58
2022-08-27T16:27:55.421Z,22.47
2022-08-27T16:30:27.006Z,22.45
2022-08-27T16:32:55.879Z,22.41
2022-08-27T16:35:25.195Z,22.43
2022-08-27T16:37:53.975Z,22.47
2022-08-27T16:40:23.467Z,22.55
2022-08-27T16:42:54.913Z,22.55
2022-08-27T16:45:26.279Z,22.57
2022-08-27T16:48:13.275Z,22.52
2022-08-27T16:50:43.002Z,22.40
2022-08-27T16:53:16.087Z,22.37
2022-08-27T16:55:47.486Z,22.19
2022-08-27T16:58:22.047Z,22.17
2022-08-27T17:00:55.037Z,22.04
2022-08-27T17:03:26.047Z,22.01
2022-08-27T17:05:55.755Z,21.88
2022-08-27T17:08:27.355Z,21.85
2022-08-27T17:10:57.891Z,21.87
2022-08-27T17:13:32.613Z,21.84
2022-08-27T17:16:02.155Z,21.77
2022-08-27T17:18:31.676Z,21.66
2022-08-27T17:21:02.378Z,21.61
2022-08-27T17:23:37.516Z,21.66
2022-08-27T17:26:10.350Z,21.70
2022-08-27T17:28:41.980Z,21.70
2022-08-27T17:31:13.890Z,21.67
2022-08-27T17:33:46.253Z,21.63
2022-08-27T17:36:15.792Z,21.59
2022-08-27T17:38:45.152Z,21.61
2022-08-27T17:41:22.547Z,21.51
2022-08-27T17:43:53.203Z,21.52
2022-08-27T17:46:21.746Z,21.51
2022-08-27T17:48:50.282Z,21.50
2022-08-27T17:51:19.730Z,21.53
2022-08-27T17:53:51.529Z,21.53
2022-08-27T17:56:23.615Z,21.50
2022-08-27T17:58:55.508Z,21.52
2022-08-27T18:01:29.560Z,21.50
2022-08-27T18:03:59.851Z,21.49
2022-08-27T18:06:30.354Z,21.51
2022-08-27T18:08:59.360Z,21.54
2022-08-27T18:11:28.377Z,21.52
2022-08-27T18:14:04.903Z,21.49
2022-08-27T18:16:34.569Z,21.42
2022-08-27T18:19:03.696Z,21.37
2022-08-27T18:21:46.173Z,21.44
2022-08-27T18:24:16.093Z,21.46
2022-08-27T18:26:46.794Z,21.42
2022-08-27T18:29:17.303Z,21.44
2022-08-27T18:31:46.247Z,21.43
2022-08-27T18:34:20.044Z,21.35
2022-08-27T18:36:49.560Z,21.37
2022-08-27T18:39:18.252Z,21.35
2022-08-27T18:44:36.719Z,21.34
2022-08-27T18:47:06.294Z,21.37
2022-08-27T18:49:35.120Z,21.33
2022-08-27T18:52:04.147Z,21.35
2022-08-27T18:54:33.816Z,21.31
2022-08-27T18:57:02.616Z,21.21
2022-08-27T18:59:33.386Z,21.17
2022-08-27T19:02:02.675Z,21.18
2022-08-27T19:04:35.073Z,21.18
2022-08-27T19:07:04.201Z,21.10
2022-08-27T19:09:33.389Z,21.06
2022-08-27T19:12:02.798Z,21.03
2022-08-27T19:14:33.648Z,21.04
2022-08-27T19:17:04.261Z,20.99
2022-08-27T19:19:33.377Z,20.95
2022-08-27T19:22:03.908Z,20.93
2022-08-27T19:24:36.893Z,20.91
2022-08-27T19:27:09.729Z,20.91
2022-08-27T19:29:39.693Z,20.90
2022-08-27T19:32:08.535Z,20.86
2022-08-27T19:34:37.211Z,20.84
2022-08-27T19:37:09.850Z,20.84
2022-08-27T19:39:39.957Z,20.81
2022-08-27T19:42:09.443Z,20.73
2022-08-27T19:44:39.650Z,20.76
2022-08-27T19:47:12.217Z,20.69
2022-08-27T19:49:42.021Z,20.67
2022-08-27T19:52:11.518Z,20.61
2022-08-27T19:54:56.938Z,20.59
2022-08-27T19:57:29.077Z,20.56
2022-08-27T19:59:59.751Z,20.56
2022-08-27T20:02:29.473Z,20.34
2022-08-27T20:05:17.059Z,20.35
2022-08-27T20:07:47.332Z,20.41
2022-08-27T20:10:16.721Z,20.38
2022-08-27T20:12:45.638Z,20.33
2022-08-27T20:15:28.331Z,20.34
2022-08-27T20:17:59.691Z,20.31
2022-08-27T20:20:30.003Z,20.35
2022-08-27T20:23:02.774Z,20.34
2022-08-27T20:25:33.581Z,20.34
2022-08-27T20:28:21.836Z,20.34
2022-08-27T20:30:53.365Z,20.31
2022-08-27T20:33:22.011Z,20.32
2022-08-27T20:35:50.894Z,20.30
2022-08-27T20:38:21.842Z,20.28
2022-08-27T20:40:51.349Z,20.25
2022-08-27T20:43:21.679Z,20.22
2022-08-27T20:45:53.076Z,20.25
2022-08-27T20:48:23.507Z,20.25
2022-08-27T20:50:52.255Z,20.26
2022-08-27T20:53:21.394Z,20.26
2022-08-27T20:55:50.159Z,20.25
2022-08-27T20:58:36.489Z,20.27
2022-08-27T21:01:05.550Z,20.25
2022-08-27T21:03:39.102Z,20.25
2022-08-27T21:06:11.441Z,20.27
2022-08-27T21:08:41.426Z,20.22
2022-08-27T21:11:17.035Z,20.18
2022-08-27T21:13:56.090Z,20.19
2022-08-27T21:16:25.546Z,20.21
2022-08-27T21:18:56.561Z,20.19
2022-08-27T21:21:25.312Z,20.19
2022-08-27T21:23:53.926Z,20.17
2022-08-27T21:26:23.174Z,20.17
2022-08-27T21:28:55.662Z,20.11
2022-08-27T21:31:26.058Z,20.10
2022-08-27T21:33:56.473Z,20.10
2022-08-27T21:36:25.489Z,20.09
2022-08-27T21:38:54.139Z,20.11
2022-08-27T21:41:24.380Z,20.14
2022-08-27T21:43:53.923Z,20.13
2022-08-27T21:46:23.556Z,20.15
2022-08-27T21:48:58.618Z,20.16
2022-08-27T21:51:29.516Z,20.18
2022-08-27T21:53:59.298Z,20.14
2022-08-27T21:56:28.480Z,20.16
2022-08-27T21:58:57.056Z,20.15
2022-08-27T22:01:26.252Z,20.17
2022-08-27T22:03:55.853Z,20.15
2022-08-27T22:06:25.093Z,20.14
2022-08-27T22:08:55.015Z,20.12
2022-08-27T22:11:24.611Z,20.12
2022-08-27T22:13:53.933Z,20.13
2022-08-27T22:16:23.210Z,20.14
2022-08-27T22:18:54.590Z,20.14
2022-08-27T22:21:24.713Z,20.13
2022-08-27T22:23:55.127Z,20.12
2022-08-27T22:26:25.141Z,20.09
2022-08-27T22:28:53.643Z,20.11
2022-08-27T22:31:23.745Z,20.09
2022-08-27T22:33:52.504Z,20.07
2022-08-27T22:36:23.314Z,20.04
2022-08-27T22:38:52.094Z,20.05
2022-08-27T22:41:22.368Z,20.06
2022-08-27T22:43:51.924Z,20.07
2022-08-27T22:46:25.471Z,20.04
2022-08-27T22:48:54.703Z,20.04
2022-08-27T22:51:23.633Z,20.02
2022-08-27T22:53:52.624Z,20.04
2022-08-27T22:56:22.493Z,19.97
2022-08-27T22:58:51.034Z,19.99
2022-08-27T23:01:21.510Z,20.01
2022-08-27T23:03:52.036Z,19.97
2022-08-27T23:06:21.562Z,19.90
2022-08-27T23:08:54.278Z,19.85
2022-08-27T23:11:24.397Z,19.86
2022-08-27T23:13:53.571Z,19.82
2022-08-27T23:16:22.828Z,19.79
2022-08-27T23:18:51.650Z,19.76
2022-08-27T23:21:32.663Z,19.80
2022-08-27T23:24:02.729Z,19.76
2022-08-27T23:26:52.217Z,19.74
2022-08-27T23:29:22.733Z,19.73
2022-08-27T23:31:51.981Z,19.72
2022-08-27T23:34:22.660Z,19.77
2022-08-27T23:36:51.550Z,19.77
2022-08-27T23:39:20.478Z,19.77
2022-08-27T23:41:50.864Z,19.76
2022-08-27T23:44:19.454Z,19.75
2022-08-27T23:46:48.764Z,19.78
2022-08-27T23:49:19.259Z,19.78
2022-08-27T23:51:48.876Z,19.77
2022-08-27T23:54:17.389Z,19.77
2022-08-27T23:56:45.871Z,19.78
2022-08-27T23:59:16.689Z,19.78
